Time;durP1;ratioP1;P1;durP2;ratioP2;P2;SDS_P1;SDS_P2;PMS_P1;PMS_P2;Temp;Humidity;BMP_temperature;BMP_pressure;BME280_temperature;BME280_humidity;BME280_pressure;Samples;Min_cycle;Max_cycle;Signal;HPM_P1;HPM_P2
2023/12/23 00:00:57;;;;;;;8.18;1.25;;;;;;;;;;4969591;28;20789;-67
2023/12/23 00:03:24;;;;;;;9.18;1.27;;;;;;;;;;4970636;28;20826;-68
2023/12/23 00:05:50;;;;;;;14.43;2.72;;;;;;;;;;4977277;28;20062;-67
2023/12/23 00:08:17;;;;;;;12.15;2.10;;;;;;;;;;4968011;28;20495;-67
2023/12/23 00:10:43;;;;;;;10.10;1.90;;;;;;;;;;4972364;28;20454;-69
2023/12/23 00:13:10;;;;;;;13.02;1.73;;;;;;;;;;4963551;28;20546;-67
2023/12/23 00:15:36;;;;;;;11.90;1.65;;;;;;;;;;4969380;28;20686;-66
2023/12/23 00:18:03;;;;;;;10.50;1.33;;;;;;;;;;4965396;28;20078;-67
2023/12/23 00:20:30;;;;;;;9.77;1.95;;;;;;;;;;4971590;28;20742;-68
2023/12/23 00:22:56;;;;;;;11.68;1.45;;;;;;;;;;4966481;28;20059;-67
2023/12/23 00:25:23;;;;;;;10.30;1.90;;;;;;;;;;4966469;28;20419;-67
2023/12/23 00:27:50;;;;;;;7.88;1.40;;;;;;;;;;4972908;28;20054;-67
2023/12/23 00:30:17;;;;;;;8.70;1.35;;;;;;;;;;4975264;28;20047;-65
2023/12/23 00:32:44;;;;;;;8.98;1.70;;;;;;;;;;4964092;28;20439;-65
2023/12/23 00:35:11;;;;;;;12.63;1.52;;;;;;;;;;4978284;28;20462;-66
2023/12/23 00:37:37;;;;;;;14.65;1.60;;;;;;;;;;4966235;28;20086;-65
2023/12/23 00:40:06;;;;;;;14.82;1.73;;;;;;;;;;4975571;28;20529;-65
2023/12/23 00:42:32;;;;;;;12.23;2.78;;;;;;;;;;4971090;28;20419;-65
2023/12/23 00:44:59;;;;;;;10.30;1.23;;;;;;;;;;4971055;28;20487;-66
2023/12/23 00:47:25;;;;;;;9.65;1.65;;;;;;;;;;4974065;28;20093;-69
2023/12/23 00:49:56;;;;;;;11.77;1.67;;;;;;;;;;4974452;28;20207;-68
2023/12/23 00:52:22;;;;;;;11.75;1.80;;;;;;;;;;4977841;28;20501;-68
2023/12/23 00:54:49;;;;;;;11.00;1.60;;;;;;;;;;4967416;28;20348;-68
2023/12/23 00:57:15;;;;;;;15.90;2.63;;;;;;;;;;4966464;28;20051;-68
2023/12/23 00:59:41;;;;;;;13.60;2.42;;;;;;;;;;4979690;28;20097;-68
2023/12/23 01:02:08;;;;;;;10.38;1.15;;;;;;;;;;4960755;28;20495;-69
2023/12/23 01:04:35;;;;;;;8.10;1.23;;;;;;;;;;4967458;28;20088;-68
2023/12/23 01:07:01;;;;;;;7.72;1.23;;;;;;;;;;4963547;28;20101;-70
2023/12/23 01:09:28;;;;;;;12.50;1.52;;;;;;;;;;4964665;28;20049;-69
2023/12/23 01:11:54;;;;;;;11.90;1.67;;;;;;;;;;4960317;28;20074;-69
2023/12/23 01:14:21;;;;;;;6.00;1.15;;;;;;;;;;4968980;28;20499;-68
2023/12/23 01:16:47;;;;;;;19.98;2.05;;;;;;;;;;4964544;28;20486;-68
2023/12/23 01:19:13;;;;;;;10.40;1.52;;;;;;;;;;4967119;28;20054;-69
2023/12/23 01:21:40;;;;;;;6.80;1.10;;;;;;;;;;4979233;28;20054;-68
2023/12/23 01:24:06;;;;;;;6.60;1.45;;;;;;;;;;4959453;28;20495;-68
2023/12/23 01:26:33;;;;;;;7.43;1.10;;;;;;;;;;4961394;28;20051;-68
2023/12/23 01:29:03;;;;;;;11.45;1.30;;;;;;;;;;4972985;28;20050;-68
2023/12/23 01:31:29;;;;;;;10.65;1.80;;;;;;;;;;4973353;28;20053;-68
2023/12/23 01:33:56;;;;;;;9.40;1.13;;;;;;;;;;4981922;28;20061;-68
2023/12/23 01:36:22;;;;;;;13.73;1.98;;;;;;;;;;4977430;28;20797;-69
2023/12/23 01:38:49;;;;;;;11.75;2.10;;;;;;;;;;4961922;28;20133;-69
2023/12/23 01:41:15;;;;;;;11.32;1.48;;;;;;;;;;4969045;28;20077;-68
2023/12/23 01:43:41;;;;;;;11.38;1.30;;;;;;;;;;4963937;28;20130;-68
2023/12/23 01:46:08;;;;;;;13.00;1.90;;;;;;;;;;4967368;28;20046;-68
2023/12/23 01:48:37;;;;;;;11.90;1.38;;;;;;;;;;4961893;28;20046;-68
2023/12/23 01:51:04;;;;;;;11.20;2.03;;;;;;;;;;4964302;28;20054;-65
2023/12/23 01:53:31;;;;;;;12.02;1.50;;;;;;;;;;4966737;28;20153;-66
2023/12/23 01:55:58;;;;;;;9.45;1.77;;;;;;;;;;4963661;28;20410;-64
2023/12/23 01:58:24;;;;;;;11.27;1.52;;;;;;;;;;4966201;28;20066;-68
2023/12/23 02:00:51;;;;;;;9.05;1.50;;;;;;;;;;4971476;28;20053;-68
2023/12/23 02:03:17;;;;;;;9.20;1.58;;;;;;;;;;4963545;28;20105;-68
2023/12/23 02:05:47;;;;;;;8.88;1.20;;;;;;;;;;4967395;28;20454;-68
2023/12/23 02:08:13;;;;;;;6.00;1.20;;;;;;;;;;4959152;28;20367;-68
2023/12/23 02:10:40;;;;;;;6.43;0.95;;;;;;;;;;4967521;28;20047;-68
2023/12/23 02:13:25;;;;;;;7.18;1.20;;;;;;;;;;4965495;28;20129;-68
2023/12/23 02:15:52;;;;;;;10.13;1.77;;;;;;;;;;4973582;28;20159;-68
2023/12/23 02:18:19;;;;;;;10.88;1.40;;;;;;;;;;4966493;28;20739;-68
2023/12/23 02:20:49;;;;;;;8.63;1.10;;;;;;;;;;4974011;28;20050;-68
2023/12/23 02:23:16;;;;;;;5.72;1.33;;;;;;;;;;4969732;28;20046;-69
2023/12/23 02:25:44;;;;;;;7.20;1.27;;;;;;;;;;4977501;28;20064;-69
2023/12/23 02:28:11;;;;;;;10.57;1.50;;;;;;;;;;4976354;28;20143;-68
2023/12/23 02:30:39;;;;;;;7.40;1.38;;;;;;;;;;4965367;28;20094;-69
2023/12/23 02:33:06;;;;;;;8.77;1.48;;;;;;;;;;4964667;28;20054;-69
2023/12/23 02:35:32;;;;;;;9.23;1.73;;;;;;;;;;4956529;28;20674;-69
2023/12/23 02:37:59;;;;;;;9.43;1.45;;;;;;;;;;4984628;28;20050;-68
2023/12/23 02:40:25;;;;;;;8.60;1.20;;;;;;;;;;4980265;28;20054;-69
2023/12/23 02:42:52;;;;;;;10.77;1.35;;;;;;;;;;4959894;28;20807;-69
2023/12/23 02:45:18;;;;;;;8.98;1.35;;;;;;;;;;4970154;28;20129;-69
2023/12/23 02:47:45;;;;;;;7.15;1.20;;;;;;;;;;4967063;28;20407;-69
2023/12/23 02:50:11;;;;;;;5.63;1.30;;;;;;;;;;4974737;28;20053;-69
2023/12/23 02:52:38;;;;;;;10.15;1.40;;;;;;;;;;4971968;28;20452;-69
2023/12/23 02:55:05;;;;;;;8.57;1.23;;;;;;;;;;4971742;28;20046;-70
2023/12/23 02:57:31;;;;;;;7.50;1.30;;;;;;;;;;4973466;28;20047;-69
2023/12/23 02:59:57;;;;;;;14.55;2.15;;;;;;;;;;4968502;28;20098;-70
2023/12/23 03:02:24;;;;;;;16.48;2.22;;;;;;;;;;4964001;28;20055;-70
2023/12/23 03:04:50;;;;;;;7.57;1.65;;;;;;;;;;4958607;28;20162;-70
2023/12/23 03:07:16;;;;;;;11.98;2.15;;;;;;;;;;4970335;28;20066;-69
2023/12/23 03:09:43;;;;;;;7.38;3.08;;;;;;;;;;4973128;28;20462;-70
2023/12/23 03:12:09;;;;;;;6.65;2.83;;;;;;;;;;4960541;28;20054;-70
2023/12/23 03:14:36;;;;;;;12.52;3.95;;;;;;;;;;4972511;28;20542;-70
2023/12/23 03:17:03;;;;;;;7.55;2.78;;;;;;;;;;4955845;28;20055;-72
2023/12/23 03:19:29;;;;;;;10.48;2.97;;;;;;;;;;4976066;28;20042;-69
2023/12/23 03:21:56;;;;;;;13.77;3.65;;;;;;;;;;4966785;28;20086;-69
2023/12/23 03:24:22;;;;;;;9.15;3.70;;;;;;;;;;4978077;28;20049;-70
2023/12/23 03:26:48;;;;;;;9.57;3.75;;;;;;;;;;4978650;28;20785;-71
2023/12/23 03:29:15;;;;;;;14.00;4.00;;;;;;;;;;4967262;28;20054;-69
2023/12/23 03:31:42;;;;;;;9.70;3.67;;;;;;;;;;4965232;28;20055;-69
2023/12/23 03:34:08;;;;;;;8.82;4.10;;;;;;;;;;4972046;28;20050;-69
2023/12/23 03:36:34;;;;;;;13.43;3.65;;;;;;;;;;4976380;28;20136;-70
2023/12/23 03:39:01;;;;;;;7.72;3.63;;;;;;;;;;4967644;28;20077;-68
2023/12/23 03:41:27;;;;;;;10.85;3.40;;;;;;;;;;4979875;28;20050;-69
2023/12/23 03:43:54;;;;;;;11.35;3.42;;;;;;;;;;4971142;28;20136;-69
2023/12/23 03:46:20;;;;;;;10.23;2.80;;;;;;;;;;4959608;28;20142;-69
2023/12/23 03:48:47;;;;;;;12.55;3.00;;;;;;;;;;4976729;28;20157;-68
2023/12/23 03:51:14;;;;;;;9.07;2.58;;;;;;;;;;4966631;28;20063;-69
2023/12/23 03:53:42;;;;;;;13.77;2.00;;;;;;;;;;4985106;28;20446;-70
2023/12/23 03:56:08;;;;;;;9.50;2.13;;;;;;;;;;4981385;28;20050;-69
2023/12/23 03:58:34;;;;;;;8.55;1.92;;;;;;;;;;4972425;28;20074;-70
2023/12/23 04:01:02;;;;;;;8.18;2.13;;;;;;;;;;4965583;28;20436;-69
2023/12/23 04:03:29;;;;;;;9.13;1.83;;;;;;;;;;4967389;28;20700;-69
2023/12/23 04:05:55;;;;;;;9.27;2.00;;;;;;;;;;4976303;28;20059;-69
2023/12/23 04:08:22;;;;;;;16.70;2.13;;;;;;;;;;4970608;28;20109;-69
2023/12/23 04:10:48;;;;;;;9.20;1.83;;;;;;;;;;4971114;28;20317;-69
2023/12/23 04:13:18;;;;;;;12.88;2.20;;;;;;;;;;4975339;28;20050;-69
2023/12/23 04:15:44;;;;;;;13.32;2.08;;;;;;;;;;4958209;28;20050;-69
2023/12/23 04:18:11;;;;;;;10.13;1.50;;;;;;;;;;4965111;28;20054;-65
2023/12/23 04:20:37;;;;;;;13.25;2.17;;;;;;;;;;4969988;28;20063;-67
2023/12/23 04:23:03;;;;;;;8.07;1.70;;;;;;;;;;4972703;28;20483;-66
2023/12/23 04:25:30;;;;;;;10.15;1.50;;;;;;;;;;4984446;28;20057;-69
2023/12/23 04:27:56;;;;;;;6.03;1.48;;;;;;;;;;4967248;28;20086;-67
2023/12/23 04:30:23;;;;;;;8.32;1.63;;;;;;;;;;4970439;28;20046;-68
2023/12/23 04:32:49;;;;;;;11.77;1.60;;;;;;;;;;4957861;28;20162;-68
2023/12/23 04:35:16;;;;;;;10.25;1.73;;;;;;;;;;4965198;28;20477;-68
2023/12/23 04:37:44;;;;;;;13.77;2.78;;;;;;;;;;4965943;28;20133;-68
2023/12/23 04:40:11;;;;;;;11.07;2.13;;;;;;;;;;4962708;28;20521;-67
2023/12/23 04:42:37;;;;;;;9.60;1.60;;;;;;;;;;4969233;28;20097;-67
2023/12/23 04:45:04;;;;;;;13.20;2.10;;;;;;;;;;4971290;28;20050;-67
2023/12/23 04:47:31;;;;;;;10.82;1.80;;;;;;;;;;4970594;28;20046;-66
2023/12/23 04:49:57;;;;;;;11.60;2.28;;;;;;;;;;4972406;28;20520;-66
2023/12/23 04:52:24;;;;;;;8.02;2.38;;;;;;;;;;4965527;28;20051;-66
2023/12/23 04:54:50;;;;;;;8.25;1.60;;;;;;;;;;4966198;28;20554;-65
2023/12/23 04:57:16;;;;;;;10.75;1.73;;;;;;;;;;4974379;28;20046;-66
2023/12/23 04:59:43;;;;;;;12.57;2.00;;;;;;;;;;4975744;28;20042;-68
2023/12/23 05:02:09;;;;;;;5.95;1.50;;;;;;;;;;4972414;28;20078;-66
2023/12/23 05:04:36;;;;;;;9.57;2.10;;;;;;;;;;4982295;28;20443;-68
2023/12/23 05:07:02;;;;;;;11.63;1.77;;;;;;;;;;4962369;28;20082;-69
2023/12/23 05:09:29;;;;;;;7.95;2.03;;;;;;;;;;4966615;28;20043;-66
2023/12/23 05:11:55;;;;;;;10.13;2.25;;;;;;;;;;4981086;28;20054;-66
2023/12/23 05:14:22;;;;;;;8.57;1.45;;;;;;;;;;4962016;28;20046;-67
2023/12/23 05:16:48;;;;;;;14.77;1.92;;;;;;;;;;4977642;28;20109;-67
2023/12/23 05:19:15;;;;;;;12.77;1.83;;;;;;;;;;4964194;28;20053;-67
2023/12/23 05:21:42;;;;;;;6.78;1.85;;;;;;;;;;4965697;28;20134;-65
2023/12/23 05:24:08;;;;;;;11.80;2.03;;;;;;;;;;4965128;28;20522;-66
2023/12/23 05:26:35;;;;;;;8.82;1.50;;;;;;;;;;4963891;28;20101;-66
2023/12/23 05:29:01;;;;;;;16.77;2.47;;;;;;;;;;4981748;28;20563;-69
2023/12/23 05:31:27;;;;;;;12.38;2.53;;;;;;;;;;4978180;28;20050;-69
2023/12/23 05:33:56;;;;;;;8.38;1.50;;;;;;;;;;4972225;28;20051;-69
2023/12/23 05:36:22;;;;;;;16.92;2.78;;;;;;;;;;4971681;28;20042;-69
2023/12/23 05:38:48;;;;;;;7.75;1.95;;;;;;;;;;4962824;28;20157;-69
2023/12/23 05:41:15;;;;;;;13.48;2.80;;;;;;;;;;4977272;28;20069;-70
2023/12/23 05:43:41;;;;;;;13.40;2.30;;;;;;;;;;4960176;28;20043;-69
2023/12/23 05:46:08;;;;;;;10.85;2.00;;;;;;;;;;4981623;28;20078;-69
2023/12/23 05:48:35;;;;;;;10.80;1.88;;;;;;;;;;4977740;28;20193;-69
2023/12/23 05:51:02;;;;;;;10.20;1.73;;;;;;;;;;4977187;28;20050;-71
2023/12/23 05:53:28;;;;;;;8.95;1.83;;;;;;;;;;4978610;28;20554;-70
2023/12/23 05:55:54;;;;;;;10.07;1.75;;;;;;;;;;4965171;28;20058;-70
2023/12/23 05:58:21;;;;;;;11.45;2.20;;;;;;;;;;4967836;28;20050;-70
2023/12/23 06:00:49;;;;;;;18.90;2.45;;;;;;;;;;4972097;28;20085;-69
2023/12/23 06:03:15;;;;;;;8.03;1.60;;;;;;;;;;4957588;28;20047;-71
2023/12/23 06:05:41;;;;;;;10.68;2.03;;;;;;;;;;4966846;28;20047;-70
2023/12/23 06:08:08;;;;;;;12.60;2.20;;;;;;;;;;4975517;28;20057;-71
2023/12/23 06:10:34;;;;;;;10.65;2.50;;;;;;;;;;4979022;28;20089;-70
2023/12/23 06:13:19;;;;;;;15.10;2.00;;;;;;;;;;4957550;28;20054;-71
2023/12/23 06:15:45;;;;;;;6.55;1.83;;;;;;;;;;4972037;28;20061;-69
2023/12/23 06:18:12;;;;;;;14.88;2.53;;;;;;;;;;4966352;28;20054;-70
2023/12/23 06:20:38;;;;;;;8.27;2.05;;;;;;;;;;4975518;28;20054;-70
2023/12/23 06:23:05;;;;;;;9.27;1.85;;;;;;;;;;4977659;28;20050;-69
2023/12/23 06:25:32;;;;;;;10.13;2.03;;;;;;;;;;4965758;28;20142;-69
2023/12/23 06:27:59;;;;;;;10.23;1.98;;;;;;;;;;4964527;28;20551;-70
2023/12/23 06:30:25;;;;;;;12.93;2.28;;;;;;;;;;4965535;28;20123;-70
2023/12/23 06:32:51;;;;;;;13.85;2.15;;;;;;;;;;4965413;28;20410;-70
2023/12/23 06:35:20;;;;;;;12.82;2.53;;;;;;;;;;4963453;28;20043;-70
2023/12/23 06:37:47;;;;;;;14.35;2.50;;;;;;;;;;4972083;28;20744;-70
2023/12/23 06:40:15;;;;;;;13.07;2.22;;;;;;;;;;4969801;28;20728;-71
2023/12/23 06:42:41;;;;;;;14.00;2.45;;;;;;;;;;4973004;28;20054;-70
2023/12/23 06:45:08;;;;;;;7.88;1.88;;;;;;;;;;4959542;28;20055;-70
2023/12/23 06:47:35;;;;;;;15.43;2.50;;;;;;;;;;4961242;28;20070;-70
2023/12/23 06:50:01;;;;;;;9.18;1.75;;;;;;;;;;4973588;28;20050;-70
2023/12/23 06:52:28;;;;;;;16.50;2.55;;;;;;;;;;4978000;28;20417;-70
2023/12/23 06:54:54;;;;;;;9.18;2.08;;;;;;;;;;4969057;28;20610;-70
2023/12/23 06:57:21;;;;;;;11.88;2.05;;;;;;;;;;4971637;28;20058;-70
2023/12/23 06:59:47;;;;;;;12.40;2.25;;;;;;;;;;4958554;28;20054;-71
2023/12/23 07:02:14;;;;;;;15.68;2.28;;;;;;;;;;4972735;28;20050;-69
2023/12/23 07:04:40;;;;;;;9.10;1.95;;;;;;;;;;4968845;28;20056;-70
2023/12/23 07:07:07;;;;;;;16.13;2.70;;;;;;;;;;4969923;28;20162;-70
2023/12/23 07:09:34;;;;;;;14.13;2.92;;;;;;;;;;4972911;28;20587;-70
2023/12/23 07:12:00;;;;;;;13.13;2.35;;;;;;;;;;4972097;28;20073;-69
2023/12/23 07:14:26;;;;;;;13.25;2.17;;;;;;;;;;4966702;28;20141;-70
2023/12/23 07:16:54;;;;;;;13.02;3.28;;;;;;;;;;4964610;28;20505;-69
2023/12/23 07:19:21;;;;;;;14.33;2.73;;;;;;;;;;4986073;28;20149;-70
2023/12/23 07:21:52;;;;;;;8.18;1.83;;;;;;;;;;4975495;28;20069;-70
2023/12/23 07:24:19;;;;;;;10.15;2.08;;;;;;;;;;4985177;28;20055;-69
2023/12/23 07:26:46;;;;;;;9.52;2.03;;;;;;;;;;4983937;28;20057;-68
2023/12/23 07:29:12;;;;;;;15.15;2.33;;;;;;;;;;4958436;28;20054;-71
2023/12/23 07:31:39;;;;;;;8.63;1.90;;;;;;;;;;4967448;28;20043;-70
2023/12/23 07:34:06;;;;;;;13.10;2.30;;;;;;;;;;4976965;28;20051;-69
2023/12/23 07:36:32;;;;;;;12.70;2.83;;;;;;;;;;4979232;28;20050;-70
2023/12/23 07:38:58;;;;;;;14.63;2.35;;;;;;;;;;4962376;28;20483;-70
2023/12/23 07:41:25;;;;;;;11.88;2.05;;;;;;;;;;4969322;28;20042;-70
2023/12/23 07:43:52;;;;;;;11.70;2.05;;;;;;;;;;4971272;28;20672;-69
2023/12/23 07:46:18;;;;;;;7.85;1.60;;;;;;;;;;4971564;28;20062;-69
2023/12/23 07:48:45;;;;;;;7.70;1.60;;;;;;;;;;4973442;28;20066;-69
2023/12/23 07:51:11;;;;;;;9.38;2.10;;;;;;;;;;4960761;28;20454;-69
2023/12/23 07:53:38;;;;;;;11.00;2.42;;;;;;;;;;4981944;28;20471;-70
2023/12/23 07:56:05;;;;;;;9.48;1.85;;;;;;;;;;4971666;28;20053;-69
2023/12/23 07:58:31;;;;;;;9.52;1.85;;;;;;;;;;4962925;28;20422;-69
2023/12/23 08:00:58;;;;;;;9.15;2.00;;;;;;;;;;4975805;28;20423;-69
2023/12/23 08:03:24;;;;;;;10.02;1.70;;;;;;;;;;4976765;28;20466;-69
2023/12/23 08:05:51;;;;;;;10.32;2.35;;;;;;;;;;4979965;28;20075;-69
2023/12/23 08:08:18;;;;;;;10.60;2.25;;;;;;;;;;4967283;28;20951;-69
2023/12/23 08:10:44;;;;;;;10.85;2.03;;;;;;;;;;4968555;28;20046;-69
2023/12/23 08:13:10;;;;;;;10.15;1.80;;;;;;;;;;4984305;28;20517;-69
2023/12/23 08:15:37;;;;;;;11.65;2.00;;;;;;;;;;4975767;28;20210;-69
2023/12/23 08:18:05;;;;;;;9.77;1.67;;;;;;;;;;4978854;28;20154;-70
2023/12/23 08:20:32;;;;;;;10.30;2.38;;;;;;;;;;4959405;28;20051;-69
2023/12/23 08:22:58;;;;;;;9.98;1.90;;;;;;;;;;4972724;28;20072;-69
2023/12/23 08:25:25;;;;;;;11.70;2.17;;;;;;;;;;4964793;28;20055;-69
2023/12/23 08:27:51;;;;;;;13.75;1.80;;;;;;;;;;4961909;28;20530;-69
2023/12/23 08:30:17;;;;;;;8.40;1.73;;;;;;;;;;4968563;28;20091;-70
2023/12/23 08:32:44;;;;;;;10.55;1.83;;;;;;;;;;4975954;28;20054;-69
2023/12/23 08:35:10;;;;;;;14.00;2.10;;;;;;;;;;4972344;28;20054;-70
2023/12/23 08:37:37;;;;;;;9.75;2.20;;;;;;;;;;4975534;28;20050;-70
2023/12/23 08:40:04;;;;;;;9.68;1.90;;;;;;;;;;4965369;28;20088;-68
2023/12/23 08:42:30;;;;;;;10.50;1.65;;;;;;;;;;4969345;28;20155;-69
2023/12/23 08:44:57;;;;;;;13.07;2.13;;;;;;;;;;4972900;28;20051;-70
2023/12/23 08:47:23;;;;;;;13.30;1.85;;;;;;;;;;4981857;28;20121;-70
2023/12/23 08:49:50;;;;;;;9.55;1.92;;;;;;;;;;4962695;28;20047;-69
2023/12/23 08:52:16;;;;;;;8.15;1.85;;;;;;;;;;4964810;28;20129;-69
2023/12/23 08:54:42;;;;;;;12.23;2.38;;;;;;;;;;4956180;28;20526;-69
2023/12/23 08:57:09;;;;;;;8.13;1.35;;;;;;;;;;4969349;28;20051;-67
2023/12/23 08:59:35;;;;;;;17.52;2.88;;;;;;;;;;4979424;28;20056;-67
2023/12/23 09:02:03;;;;;;;12.63;1.88;;;;;;;;;;4968456;28;20051;-67
2023/12/23 09:04:30;;;;;;;6.85;1.63;;;;;;;;;;4978814;28;20047;-68
2023/12/23 09:06:57;;;;;;;11.05;1.58;;;;;;;;;;4955485;28;20055;-68
2023/12/23 09:09:24;;;;;;;8.63;1.20;;;;;;;;;;4963604;28;20550;-70
2023/12/23 09:11:50;;;;;;;8.93;1.60;;;;;;;;;;4981145;28;20050;-67
2023/12/23 09:14:17;;;;;;;12.90;2.00;;;;;;;;;;4968922;28;20050;-67
2023/12/23 09:16:43;;;;;;;6.70;1.63;;;;;;;;;;4969719;28;20089;-67
2023/12/23 09:19:10;;;;;;;13.32;1.90;;;;;;;;;;4960324;28;20322;-68
2023/12/23 09:21:36;;;;;;;10.63;1.95;;;;;;;;;;4972707;28;20054;-68
2023/12/23 09:24:03;;;;;;;9.10;1.63;;;;;;;;;;4977984;28;20105;-67
2023/12/23 09:26:29;;;;;;;11.85;1.70;;;;;;;;;;4973534;28;20055;-68
2023/12/23 09:28:56;;;;;;;9.50;1.88;;;;;;;;;;4971047;28;20142;-68
2023/12/23 09:31:22;;;;;;;6.40;1.58;;;;;;;;;;4969386;28;20057;-67
2023/12/23 09:33:48;;;;;;;6.25;1.42;;;;;;;;;;4970758;28;20039;-67
2023/12/23 09:36:15;;;;;;;7.85;1.23;;;;;;;;;;4954687;28;20043;-68
2023/12/23 09:38:41;;;;;;;8.73;1.67;;;;;;;;;;4969353;28;20060;-67
2023/12/23 09:41:11;;;;;;;9.93;1.80;;;;;;;;;;4972905;28;20074;-67
2023/12/23 09:43:37;;;;;;;6.43;1.35;;;;;;;;;;4974729;28;20047;-67
2023/12/23 09:46:04;;;;;;;9.75;1.95;;;;;;;;;;4964957;28;20062;-67
2023/12/23 09:48:31;;;;;;;7.28;1.25;;;;;;;;;;4965077;28;20042;-67
2023/12/23 09:50:57;;;;;;;5.47;1.23;;;;;;;;;;4974458;28;20050;-68
2023/12/23 09:53:26;;;;;;;14.52;1.90;;;;;;;;;;4967215;28;20137;-67
2023/12/23 09:55:52;;;;;;;10.50;1.67;;;;;;;;;;4966897;28;20125;-67
2023/12/23 09:58:19;;;;;;;14.27;1.95;;;;;;;;;;4971628;28;20144;-68
2023/12/23 10:00:45;;;;;;;11.13;1.80;;;;;;;;;;4977289;28;20046;-67
2023/12/23 10:03:12;;;;;;;6.63;1.67;;;;;;;;;;4961208;28;20047;-67
2023/12/23 10:05:42;;;;;;;9.98;1.55;;;;;;;;;;4966398;28;20050;-67
2023/12/23 10:08:09;;;;;;;13.20;2.22;;;;;;;;;;4973872;28;20101;-70
2023/12/23 10:10:35;;;;;;;9.25;1.90;;;;;;;;;;4962944;28;20073;-69
2023/12/23 10:13:02;;;;;;;11.10;2.38;;;;;;;;;;4972928;28;20089;-69
2023/12/23 10:15:29;;;;;;;11.45;1.92;;;;;;;;;;4979544;28;20137;-69
2023/12/23 10:17:55;;;;;;;5.70;1.45;;;;;;;;;;4966464;28;20046;-69
2023/12/23 10:20:22;;;;;;;10.77;1.83;;;;;;;;;;4974181;28;20414;-69
2023/12/23 10:22:49;;;;;;;9.88;1.50;;;;;;;;;;4977939;28;20050;-69
2023/12/23 10:25:16;;;;;;;8.73;1.83;;;;;;;;;;4971846;28;20117;-69
2023/12/23 10:27:43;;;;;;;8.02;1.80;;;;;;;;;;4965443;28;20146;-70
2023/12/23 10:30:10;;;;;;;8.65;1.60;;;;;;;;;;4970656;28;20100;-69
2023/12/23 10:32:37;;;;;;;11.10;1.73;;;;;;;;;;4977877;28;20038;-70
2023/12/23 10:35:10;;;;;;;8.30;1.70;;;;;;;;;;4969106;28;20507;-69
2023/12/23 10:37:40;;;;;;;8.20;1.77;;;;;;;;;;4967555;28;20090;-69
2023/12/23 10:40:13;;;;;;;9.05;1.77;;;;;;;;;;4971360;28;20422;-69
2023/12/23 10:42:41;;;;;;;8.73;1.90;;;;;;;;;;4981630;28;20050;-70
2023/12/23 10:45:08;;;;;;;7.20;1.23;;;;;;;;;;4966115;28;20545;-69
2023/12/23 10:47:38;;;;;;;8.55;1.25;;;;;;;;;;4976035;28;20065;-70
2023/12/23 10:50:05;;;;;;;13.05;1.48;;;;;;;;;;4973151;28;20054;-70
2023/12/23 10:52:32;;;;;;;7.53;1.50;;;;;;;;;;4975324;28;20675;-70
2023/12/23 10:55:02;;;;;;;12.82;2.00;;;;;;;;;;4968773;28;20598;-70
2023/12/23 10:57:32;;;;;;;7.82;1.20;;;;;;;;;;4970590;28;20050;-69
2023/12/23 10:59:58;;;;;;;8.55;1.55;;;;;;;;;;4975549;28;20042;-70
2023/12/23 11:02:35;;;;;;;8.32;1.88;;;;;;;;;;4985722;28;20483;-69
2023/12/23 11:05:04;;;;;;;7.47;1.55;;;;;;;;;;4971768;28;20142;-69
2023/12/23 11:07:34;;;;;;;11.52;1.55;;;;;;;;;;4978245;28;20039;-69
2023/12/23 11:10:02;;;;;;;7.82;1.80;;;;;;;;;;4975759;28;20046;-69
2023/12/23 11:12:29;;;;;;;8.95;1.65;;;;;;;;;;4980721;28;20050;-69
2023/12/23 11:14:57;;;;;;;7.05;1.75;;;;;;;;;;4973437;28;20054;-69
2023/12/23 11:17:25;;;;;;;6.65;1.30;;;;;;;;;;4968302;28;20059;-68
2023/12/23 11:19:56;;;;;;;7.35;1.67;;;;;;;;;;4973322;28;20462;-67
2023/12/23 11:22:23;;;;;;;7.30;1.55;;;;;;;;;;4976620;28;20053;-67
2023/12/23 11:24:50;;;;;;;6.33;1.60;;;;;;;;;;4977217;28;20462;-68
2023/12/23 11:27:31;;;;;;;14.85;1.95;;;;;;;;;;4975600;28;20046;-69
2023/12/23 11:30:13;;;;;;;10.82;3.15;;;;;;;;;;4978840;28;20038;-67
2023/12/23 11:32:41;;;;;;;11.50;1.55;;;;;;;;;;4968373;28;20483;-68
2023/12/23 11:35:08;;;;;;;5.90;1.17;;;;;;;;;;4973190;28;20058;-67
2023/12/23 11:37:51;;;;;;;7.88;1.30;;;;;;;;;;4976117;28;20299;-68
2023/12/23 11:40:18;;;;;;;10.77;1.58;;;;;;;;;;4968318;28;20046;-68
2023/12/23 11:42:44;;;;;;;10.63;1.70;;;;;;;;;;4971555;28;20053;-67
2023/12/23 11:45:11;;;;;;;7.00;1.27;;;;;;;;;;4972469;28;20047;-67
2023/12/23 11:47:37;;;;;;;7.57;1.15;;;;;;;;;;4977909;28;20453;-66
2023/12/23 11:50:05;;;;;;;11.23;2.03;;;;;;;;;;4973730;28;20047;-66
2023/12/23 11:52:32;;;;;;;5.57;1.10;;;;;;;;;;4967902;28;20517;-68
2023/12/23 11:54:58;;;;;;;6.93;1.30;;;;;;;;;;4973054;28;20057;-66
2023/12/23 11:57:25;;;;;;;5.38;1.00;;;;;;;;;;4966772;28;20066;-68
2023/12/23 11:59:52;;;;;;;5.82;1.40;;;;;;;;;;4974118;28;20051;-67
2023/12/23 12:02:18;;;;;;;7.30;1.55;;;;;;;;;;4969087;28;20523;-69
2023/12/23 12:04:45;;;;;;;9.13;1.02;;;;;;;;;;4983376;28;20060;-69
2023/12/23 12:07:13;;;;;;;5.43;1.07;;;;;;;;;;4967982;28;20051;-67
2023/12/23 12:09:39;;;;;;;5.57;1.15;;;;;;;;;;4964013;28;20050;-67
2023/12/23 12:12:06;;;;;;;5.07;1.25;;;;;;;;;;4980845;28;20043;-68
2023/12/23 12:14:32;;;;;;;7.95;1.25;;;;;;;;;;4969555;28;20133;-67
2023/12/23 12:16:58;;;;;;;8.30;1.23;;;;;;;;;;4973063;28;20069;-69
2023/12/23 12:19:25;;;;;;;5.57;1.25;;;;;;;;;;4966293;28;20065;-68
2023/12/23 12:21:51;;;;;;;7.28;1.38;;;;;;;;;;4989583;28;20414;-67
2023/12/23 12:24:18;;;;;;;6.30;1.33;;;;;;;;;;4980513;28;20047;-67
2023/12/23 12:26:46;;;;;;;9.52;1.80;;;;;;;;;;4967386;28;20491;-67
2023/12/23 12:29:12;;;;;;;7.22;1.10;;;;;;;;;;4973924;28;20500;-70
2023/12/23 12:31:43;;;;;;;9.88;1.33;;;;;;;;;;4978950;28;20046;-69
2023/12/23 12:34:11;;;;;;;7.45;1.42;;;;;;;;;;4971328;28;20462;-69
2023/12/23 12:36:38;;;;;;;7.27;1.20;;;;;;;;;;4961502;28;20142;-69
2023/12/23 12:39:04;;;;;;;12.90;1.63;;;;;;;;;;4972210;28;20078;-70
2023/12/23 12:41:37;;;;;;;6.40;1.40;;;;;;;;;;4969896;28;20063;-69
2023/12/23 12:44:04;;;;;;;6.75;1.63;;;;;;;;;;4974368;28;20465;-70
2023/12/23 12:46:33;;;;;;;3.92;0.65;;;;;;;;;;4970966;28;20047;-69
2023/12/23 12:49:00;;;;;;;4.65;1.00;;;;;;;;;;4979473;28;20777;-70
2023/12/23 12:51:26;;;;;;;6.35;1.35;;;;;;;;;;4964272;28;20059;-69
2023/12/23 12:53:53;;;;;;;4.32;0.80;;;;;;;;;;4966113;28;20053;-70
2023/12/23 12:56:22;;;;;;;5.72;1.20;;;;;;;;;;4979511;28;20043;-69
2023/12/23 12:58:50;;;;;;;7.70;1.95;;;;;;;;;;4974324;28;20282;-69
2023/12/23 13:01:16;;;;;;;6.53;1.00;;;;;;;;;;4967327;28;20061;-69
2023/12/23 13:03:43;;;;;;;7.80;0.90;;;;;;;;;;4974762;28;20114;-69
2023/12/23 13:06:09;;;;;;;7.07;0.82;;;;;;;;;;4969215;28;20137;-69
2023/12/23 13:08:36;;;;;;;6.25;1.10;;;;;;;;;;4976379;28;20367;-69
2023/12/23 13:11:03;;;;;;;11.05;1.70;;;;;;;;;;4982360;28;20050;-69
2023/12/23 13:13:29;;;;;;;5.20;1.10;;;;;;;;;;4974832;28;20054;-70
2023/12/23 13:15:55;;;;;;;9.00;1.45;;;;;;;;;;4968254;28;20047;-69
2023/12/23 13:18:22;;;;;;;10.30;1.65;;;;;;;;;;4971444;28;20104;-71
2023/12/23 13:20:49;;;;;;;4.65;1.27;;;;;;;;;;4971025;28;20496;-69
2023/12/23 13:23:15;;;;;;;5.80;1.25;;;;;;;;;;4962225;28;20043;-69
2023/12/23 13:25:43;;;;;;;6.97;1.77;;;;;;;;;;4971417;28;20434;-68
2023/12/23 13:28:10;;;;;;;8.02;1.40;;;;;;;;;;4973531;28;20058;-69
2023/12/23 13:30:38;;;;;;;7.47;1.98;;;;;;;;;;4971982;28;20090;-69
2023/12/23 13:33:05;;;;;;;5.55;1.10;;;;;;;;;;4973183;28;20108;-70
2023/12/23 13:35:31;;;;;;;5.05;0.80;;;;;;;;;;4966882;28;20046;-69
2023/12/23 13:37:58;;;;;;;9.00;1.33;;;;;;;;;;4971691;28;20498;-66
2023/12/23 13:40:24;;;;;;;8.05;1.02;;;;;;;;;;4965230;28;20074;-69
2023/12/23 13:42:51;;;;;;;8.60;1.40;;;;;;;;;;4966670;28;20058;-67
2023/12/23 13:45:17;;;;;;;8.98;1.13;;;;;;;;;;4972534;28;20043;-68
2023/12/23 13:47:44;;;;;;;5.68;1.30;;;;;;;;;;4967392;28;20044;-68
2023/12/23 13:50:11;;;;;;;5.55;1.30;;;;;;;;;;4960155;28;20117;-68
2023/12/23 13:52:39;;;;;;;5.32;1.15;;;;;;;;;;4960707;28;20706;-70
2023/12/23 13:55:07;;;;;;;4.43;1.15;;;;;;;;;;4982677;28;20074;-68
2023/12/23 13:57:34;;;;;;;4.72;1.20;;;;;;;;;;4971732;28;20086;-67
2023/12/23 14:00:00;;;;;;;5.97;0.93;;;;;;;;;;4970072;28;20067;-69
2023/12/23 14:02:27;;;;;;;9.02;1.42;;;;;;;;;;4967918;28;20563;-67
2023/12/23 14:04:54;;;;;;;7.30;1.73;;;;;;;;;;4977303;28;20133;-68
2023/12/23 14:07:20;;;;;;;9.32;1.80;;;;;;;;;;4982720;28;20049;-69
2023/12/23 14:09:47;;;;;;;6.90;1.23;;;;;;;;;;4969177;28;20051;-69
2023/12/23 14:12:13;;;;;;;5.07;0.95;;;;;;;;;;4959388;28;20043;-69
2023/12/23 14:14:40;;;;;;;7.07;1.33;;;;;;;;;;4977092;28;20058;-67
2023/12/23 14:17:06;;;;;;;3.70;0.80;;;;;;;;;;4975632;28;20051;-69
2023/12/23 14:19:33;;;;;;;8.50;1.40;;;;;;;;;;4969988;28;20057;-68
2023/12/23 14:21:59;;;;;;;5.78;1.60;;;;;;;;;;4968434;28;20050;-68
2023/12/23 14:24:25;;;;;;;7.63;1.73;;;;;;;;;;4976070;28;20053;-68
2023/12/23 14:26:52;;;;;;;5.15;1.00;;;;;;;;;;4960689;28;20124;-67
2023/12/23 14:29:18;;;;;;;8.10;1.65;;;;;;;;;;4966784;28;20109;-68
2023/12/23 14:31:45;;;;;;;5.55;1.40;;;;;;;;;;4980456;28;20050;-68
2023/12/23 14:34:11;;;;;;;8.77;1.60;;;;;;;;;;4967287;28;20054;-68
2023/12/23 14:36:42;;;;;;;8.25;1.98;;;;;;;;;;4977521;28;20050;-68